createdAt,value
2023-03-30T00:00:58.055Z,10.40
2023-03-30T00:03:27.768Z,9.23
2023-03-30T00:05:58.975Z,12.00
2023-03-30T00:08:28.564Z,11.13
2023-03-30T00:11:06.219Z,13.93
2023-03-30T00:13:35.033Z,15.02
2023-03-30T00:16:02.329Z,7.10
2023-03-30T00:18:34.079Z,11.33
2023-03-30T00:21:03.139Z,7.60
2023-03-30T00:23:30.972Z,8.00
2023-03-30T00:25:58.200Z,7.43
2023-03-30T00:28:26.381Z,10.93
2023-03-30T00:30:53.907Z,6.77
2023-03-30T00:33:30.179Z,12.20
2023-03-30T00:36:04.851Z,10.07
2023-03-30T00:38:32.074Z,12.23
2023-03-30T00:41:02.181Z,9.43
2023-03-30T00:43:29.812Z,10.23
2023-03-30T00:45:57.783Z,7.50
2023-03-30T00:48:27.984Z,5.95
2023-03-30T00:51:03.245Z,5.73
2023-03-30T00:53:53.233Z,6.90
2023-03-30T00:56:26.756Z,6.73
2023-03-30T00:58:55.087Z,5.50
2023-03-30T01:01:31.248Z,4.63
2023-03-30T01:04:05.676Z,9.80
2023-03-30T01:06:35.484Z,9.20
2023-03-30T01:09:02.775Z,8.10
2023-03-30T01:11:29.631Z,8.83
2023-03-30T01:14:01.362Z,7.27
2023-03-30T01:16:46.522Z,9.37
2023-03-30T01:19:25.861Z,9.07
2023-03-30T01:24:35.030Z,6.03
2023-03-30T01:27:46.335Z,4.90
2023-03-30T01:30:19.210Z,6.07
2023-03-30T01:33:04.717Z,6.37
2023-03-30T01:35:46.211Z,6.93
2023-03-30T01:38:25.142Z,5.63
2023-03-30T01:41:14.134Z,5.20
2023-03-30T01:43:53.940Z,6.63
2023-03-30T01:46:31.004Z,6.40
2023-03-30T01:49:15.484Z,5.20
2023-03-30T01:51:54.321Z,5.27
2023-03-30T01:54:24.152Z,6.47
2023-03-30T01:56:57.964Z,7.10
2023-03-30T01:59:31.551Z,6.53
2023-03-30T02:02:04.241Z,8.43
2023-03-30T02:04:38.874Z,8.30
2023-03-30T02:07:20.936Z,7.83
2023-03-30T02:09:51.016Z,6.90
2023-03-30T02:12:19.664Z,7.07
2023-03-30T02:14:49.654Z,7.68
2023-03-30T02:17:24.612Z,9.47
2023-03-30T02:19:52.564Z,9.20
2023-03-30T02:22:20.668Z,4.88
2023-03-30T02:24:52.048Z,7.03
2023-03-30T02:27:19.831Z,7.80
2023-03-30T02:29:47.089Z,6.00
2023-03-30T02:32:28.923Z,6.20
2023-03-30T02:35:09.074Z,6.57
2023-03-30T02:38:20.543Z,7.67
2023-03-30T02:40:53.117Z,11.67
2023-03-30T02:43:52.684Z,9.03
2023-03-30T02:46:28.647Z,4.40
2023-03-30T02:49:28.775Z,7.70
2023-03-30T02:52:34.026Z,6.30
2023-03-30T02:55:13.680Z,9.53
2023-03-30T02:57:46.871Z,7.07
2023-03-30T03:00:34.680Z,7.20
2023-03-30T03:03:31.774Z,4.70
2023-03-30T03:06:02.920Z,5.80
2023-03-30T03:08:35.361Z,5.37
2023-03-30T03:11:02.797Z,4.57
2023-03-30T03:13:29.926Z,5.40
2023-03-30T03:15:58.715Z,5.03
2023-03-30T03:18:25.664Z,6.68
2023-03-30T03:20:52.826Z,8.40
2023-03-30T03:23:19.661Z,13.37
2023-03-30T03:25:48.412Z,7.10
2023-03-30T03:28:15.588Z,7.15
2023-03-30T03:30:42.895Z,5.30
2023-03-30T03:33:09.796Z,8.50
2023-03-30T03:35:39.525Z,7.87
2023-03-30T03:38:07.947Z,6.70
2023-03-30T03:40:35.067Z,5.30
2023-03-30T03:43:02.134Z,5.30
2023-03-30T03:45:29.369Z,8.77
2023-03-30T03:47:56.514Z,10.30
2023-03-30T03:50:24.199Z,6.17
2023-03-30T03:52:51.384Z,7.57
2023-03-30T03:55:18.546Z,7.03
2023-03-30T03:57:45.368Z,8.93
2023-03-30T04:00:18.709Z,10.83
2023-03-30T04:02:46.926Z,8.47
2023-03-30T04:05:14.236Z,8.80
2023-03-30T04:07:41.697Z,10.53
2023-03-30T04:10:09.190Z,11.70
2023-03-30T04:12:36.501Z,8.40
2023-03-30T04:15:04.050Z,6.60
2023-03-30T04:17:33.738Z,7.43
2023-03-30T04:20:05.023Z,5.73
2023-03-30T04:22:41.974Z,5.87
2023-03-30T04:25:11.748Z,5.67
2023-03-30T04:27:38.856Z,4.57
2023-03-30T04:30:06.571Z,6.67
2023-03-30T04:32:34.875Z,5.43
2023-03-30T04:35:02.245Z,5.15
2023-03-30T04:37:32.150Z,7.50
2023-03-30T04:40:00.539Z,7.67
2023-03-30T04:42:30.470Z,5.30
2023-03-30T04:44:58.017Z,10.07
2023-03-30T04:47:26.145Z,10.10
2023-03-30T04:49:53.385Z,8.90
2023-03-30T04:52:20.894Z,8.47
2023-03-30T04:54:48.147Z,6.83
2023-03-30T04:57:16.284Z,7.90
2023-03-30T04:59:45.200Z,11.60
2023-03-30T05:02:13.826Z,5.20
2023-03-30T05:04:41.517Z,8.10
2023-03-30T05:07:09.073Z,9.03
2023-03-30T05:09:36.562Z,11.17
2023-03-30T05:12:04.791Z,9.53
2023-03-30T05:14:32.052Z,10.75
2023-03-30T05:16:59.043Z,8.40
2023-03-30T05:19:26.555Z,13.87
2023-03-30T05:21:54.099Z,11.97
2023-03-30T05:24:21.382Z,12.47
2023-03-30T05:26:48.318Z,10.47
2023-03-30T05:29:15.944Z,9.53
2023-03-30T05:31:42.894Z,9.90
2023-03-30T05:34:10.098Z,11.50
2023-03-30T05:36:37.025Z,11.20
2023-03-30T05:39:05.169Z,12.37
2023-03-30T05:41:32.104Z,8.57
2023-03-30T05:43:59.345Z,10.20
2023-03-30T05:46:26.365Z,16.63
2023-03-30T05:48:53.539Z,13.30
2023-03-30T05:51:20.657Z,9.10
2023-03-30T05:53:47.975Z,11.70
2023-03-30T05:56:14.816Z,8.43
2023-03-30T05:58:42.343Z,11.53
2023-03-30T06:01:09.591Z,9.27
2023-03-30T06:03:37.818Z,9.13
2023-03-30T06:06:05.849Z,8.60
2023-03-30T06:08:33.176Z,8.00
2023-03-30T06:11:01.015Z,7.53
2023-03-30T06:13:28.288Z,8.40
2023-03-30T06:15:55.237Z,7.30
2023-03-30T06:18:23.734Z,8.63
2023-03-30T06:20:52.305Z,9.40
2023-03-30T06:23:19.498Z,10.48
2023-03-30T06:25:53.157Z,9.60
2023-03-30T06:28:21.574Z,8.57
2023-03-30T06:30:49.411Z,9.37
2023-03-30T06:33:17.739Z,9.10
2023-03-30T06:35:49.217Z,7.33
2023-03-30T06:38:17.464Z,9.60
2023-03-30T06:40:44.590Z,8.50
2023-03-30T06:43:23.320Z,10.43
2023-03-30T06:45:55.229Z,10.97
2023-03-30T06:48:26.716Z,13.47
2023-03-30T06:50:55.286Z,11.13
2023-03-30T06:53:23.624Z,12.73
2023-03-30T06:55:53.066Z,11.38
2023-03-30T06:58:20.066Z,13.50
2023-03-30T07:00:47.734Z,11.17
2023-03-30T07:03:19.918Z,13.07
2023-03-30T07:05:52.429Z,10.10
2023-03-30T07:08:20.266Z,9.73
2023-03-30T07:10:48.269Z,11.97
2023-03-30T07:13:19.258Z,13.37
2023-03-30T07:15:47.014Z,12.47
2023-03-30T07:18:14.963Z,12.30
2023-03-30T07:20:42.003Z,14.77
2023-03-30T07:23:09.231Z,10.37
2023-03-30T07:25:36.427Z,11.43
2023-03-30T07:28:06.344Z,8.40
2023-03-30T07:30:34.956Z,8.63
2023-03-30T07:33:02.956Z,12.10
2023-03-30T07:35:30.173Z,12.32
2023-03-30T07:38:03.434Z,13.43
2023-03-30T07:40:31.405Z,11.50
2023-03-30T07:42:59.101Z,9.38
2023-03-30T07:45:26.324Z,8.65
2023-03-30T07:47:53.567Z,11.48
2023-03-30T07:50:21.645Z,11.93
2023-03-30T07:52:51.412Z,8.40
2023-03-30T07:55:19.079Z,9.23
2023-03-30T07:57:46.440Z,8.50
2023-03-30T08:00:14.755Z,5.25
2023-03-30T08:02:42.590Z,7.70
2023-03-30T08:05:10.305Z,8.70
2023-03-30T08:07:37.761Z,9.07
2023-03-30T08:10:05.343Z,10.45
2023-03-30T08:12:32.514Z,9.65
2023-03-30T08:14:59.510Z,6.88
2023-03-30T08:17:26.990Z,9.30
2023-03-30T08:19:53.948Z,6.70
2023-03-30T08:22:21.155Z,10.90
2023-03-30T08:24:48.181Z,11.35
2023-03-30T08:27:15.390Z,8.85
2023-03-30T08:29:42.218Z,9.40
2023-03-30T08:32:09.442Z,7.80
2023-03-30T08:34:37.392Z,13.55
2023-03-30T08:37:05.739Z,9.10
2023-03-30T08:39:33.300Z,13.50
2023-03-30T08:42:23.156Z,8.55
2023-03-30T08:44:55.762Z,8.82
2023-03-30T08:47:33.274Z,10.15
2023-03-30T08:50:04.999Z,5.28
2023-03-30T08:52:34.017Z,6.85
2023-03-30T08:55:01.976Z,8.45
2023-03-30T08:57:46.989Z,8.15
2023-03-30T09:00:29.386Z,6.82
2023-03-30T09:03:10.862Z,11.95
2023-03-30T09:05:46.162Z,5.05
2023-03-30T09:08:20.091Z,7.10
2023-03-30T09:10:59.172Z,5.30
2023-03-30T09:13:33.859Z,4.57
2023-03-30T09:16:15.048Z,8.88
2023-03-30T09:18:44.908Z,12.35
2023-03-30T09:21:13.824Z,6.57
2023-03-30T09:23:41.267Z,3.25
2023-03-30T09:26:28.519Z,6.57
2023-03-30T09:29:15.545Z,5.05
2023-03-30T09:31:51.776Z,7.65
2023-03-30T09:34:30.520Z,4.38
2023-03-30T09:37:04.038Z,6.55
2023-03-30T09:39:34.243Z,9.93
2023-03-30T09:42:01.449Z,7.15
2023-03-30T09:44:58.710Z,5.32
2023-03-30T09:47:28.653Z,8.38
2023-03-30T09:50:01.009Z,5.22
2023-03-30T09:52:32.178Z,7.45
2023-03-30T09:55:24.099Z,6.63
2023-03-30T09:57:52.379Z,5.18
2023-03-30T10:00:27.873Z,7.55
2023-03-30T10:03:03.806Z,7.72
2023-03-30T10:05:32.898Z,5.63
2023-03-30T10:10:41.223Z,5.75
2023-03-30T10:13:14.585Z,4.82
2023-03-30T10:15:44.944Z,6.85
2023-03-30T10:18:18.278Z,7.32
2023-03-30T10:21:02.735Z,7.32
2023-03-30T10:23:33.507Z,5.70
2023-03-30T10:26:03.821Z,7.50
2023-03-30T10:28:33.684Z,4.45
2023-03-30T10:31:13.712Z,8.98
2023-03-30T10:33:44.030Z,5.75
2023-03-30T10:36:13.590Z,8.90
2023-03-30T10:38:42.491Z,5.72
2023-03-30T10:41:23.757Z,6.93
2023-03-30T10:43:51.850Z,6.65
2023-03-30T10:46:22.862Z,9.75
2023-03-30T10:49:02.334Z,5.38
2023-03-30T10:51:53.304Z,5.88
2023-03-30T10:54:35.713Z,5.07
2023-03-30T10:57:26.393Z,4.88
2023-03-30T11:00:29.914Z,5.65
2023-03-30T11:02:59.472Z,5.90
2023-03-30T11:05:32.688Z,6.68
2023-03-30T11:08:07.028Z,7.72
2023-03-30T11:10:59.261Z,7.63
2023-03-30T11:13:43.019Z,7.63
2023-03-30T11:16:16.230Z,5.78
2023-03-30T11:18:57.215Z,8.77
2023-03-30T11:21:37.100Z,7.20
2023-03-30T11:24:30.277Z,6.75
2023-03-30T11:27:18.695Z,7.15
2023-03-30T11:29:50.079Z,9.90
2023-03-30T11:32:24.865Z,7.90
2023-03-30T11:35:31.861Z,4.72
2023-03-30T11:38:17.596Z,5.70
2023-03-30T11:40:47.066Z,7.78
2023-03-30T11:43:20.223Z,5.57
2023-03-30T11:46:04.427Z,10.32
2023-03-30T11:48:50.646Z,5.05
2023-03-30T11:52:01.537Z,6.25
2023-03-30T11:55:03.096Z,8.30
2023-03-30T11:57:57.174Z,7.28
2023-03-30T12:00:42.808Z,8.02
2023-03-30T12:03:17.580Z,10.25
2023-03-30T12:05:48.826Z,6.18
2023-03-30T12:08:44.180Z,8.90
2023-03-30T12:11:20.624Z,6.97
2023-03-30T12:13:52.098Z,6.72
2023-03-30T12:16:49.439Z,7.28
2023-03-30T12:19:29.353Z,12.38
2023-03-30T12:22:16.382Z,5.50
2023-03-30T12:24:53.942Z,10.23
2023-03-30T12:27:22.790Z,11.45
2023-03-30T12:32:24.242Z,8.95
2023-03-30T12:34:53.271Z,8.73
2023-03-30T12:37:35.372Z,5.55
2023-03-30T12:40:22.327Z,6.97
2023-03-30T12:43:10.973Z,9.13
2023-03-30T12:46:02.203Z,19.42
2023-03-30T12:49:01.616Z,10.68
2023-03-30T12:51:54.552Z,5.53
2023-03-30T12:54:41.890Z,9.88
2023-03-30T12:57:31.632Z,10.75
2023-03-30T13:00:23.567Z,9.07
2023-03-30T13:03:26.154Z,13.07
2023-03-30T13:05:55.445Z,7.70
2023-03-30T13:08:28.889Z,6.22
2023-03-30T13:11:21.123Z,9.57
2023-03-30T13:13:53.820Z,8.77
2023-03-30T13:16:48.984Z,6.32
2023-03-30T13:19:37.229Z,7.10
2023-03-30T13:22:13.484Z,8.80
2023-03-30T13:24:52.524Z,6.20
2023-03-30T13:27:19.611Z,9.68
2023-03-30T13:30:09.877Z,6.75
2023-03-30T13:32:39.838Z,8.68
2023-03-30T13:35:15.814Z,7.57
2023-03-30T13:38:04.376Z,6.13
2023-03-30T13:41:05.397Z,6.70
2023-03-30T13:43:58.472Z,10.05
2023-03-30T13:46:54.301Z,7.35
2023-03-30T13:49:30.692Z,14.13
2023-03-30T13:52:04.261Z,7.45
2023-03-30T13:54:34.523Z,6.68
2023-03-30T13:57:09.887Z,7.60
2023-03-30T13:59:42.475Z,8.77
2023-03-30T14:02:14.856Z,7.00
2023-03-30T14:04:42.061Z,9.85
2023-03-30T14:07:16.546Z,8.48
2023-03-30T14:09:44.683Z,10.82
2023-03-30T14:12:13.834Z,10.68
2023-03-30T14:14:47.196Z,14.57
2023-03-30T14:17:19.269Z,11.68
2023-03-30T14:19:54.210Z,6.93
2023-03-30T14:22:27.349Z,10.80
2023-03-30T14:25:02.740Z,11.25
2023-03-30T14:27:38.575Z,10.75
2023-03-30T14:30:22.305Z,11.38
2023-03-30T14:33:09.003Z,11.80
2023-03-30T14:35:47.618Z,10.35
2023-03-30T14:38:20.427Z,11.53
2023-03-30T14:40:49.071Z,13.60
2023-03-30T14:43:29.463Z,11.13
2023-03-30T14:45:59.752Z,13.48
2023-03-30T14:48:35.308Z,12.27
2023-03-30T14:51:03.882Z,12.80
2023-03-30T14:53:31.497Z,17.90
2023-03-30T14:56:01.115Z,15.90
2023-03-30T15:03:34.562Z,10.60
2023-03-30T15:06:04.946Z,14.73
2023-03-30T15:08:33.976Z,14.63
2023-03-30T15:13:36.819Z,16.10
2023-03-30T15:16:06.216Z,11.10
2023-03-30T15:18:36.528Z,15.43
2023-03-30T15:21:04.803Z,14.83
2023-03-30T15:23:41.177Z,11.32
2023-03-30T15:26:11.464Z,17.67
2023-03-30T15:28:52.194Z,25.80
2023-03-30T15:31:20.693Z,15.18
2023-03-30T15:33:54.086Z,12.63
2023-03-30T15:36:33.320Z,14.00
2023-03-30T15:39:00.482Z,15.18
2023-03-30T15:41:49.692Z,10.80
2023-03-30T15:44:21.407Z,13.40
2023-03-30T15:46:50.425Z,12.32
2023-03-30T15:49:24.924Z,15.30
2023-03-30T15:51:56.596Z,15.70
2023-03-30T15:54:34.691Z,10.87
2023-03-30T15:57:17.653Z,9.93
2023-03-30T15:59:46.951Z,13.60
2023-03-30T16:02:17.260Z,14.00
2023-03-30T16:04:44.320Z,12.43
2023-03-30T16:07:17.687Z,10.43
2023-03-30T16:09:44.980Z,9.03
2023-03-30T16:12:18.358Z,16.67
2023-03-30T16:14:47.231Z,15.23
2023-03-30T16:17:15.501Z,10.50
2023-03-30T16:19:43.332Z,11.20
2023-03-30T16:22:12.198Z,11.13
2023-03-30T16:24:39.106Z,10.63
2023-03-30T16:27:06.604Z,10.30
2023-03-30T16:29:33.729Z,11.95
2023-03-30T16:32:01.603Z,13.00
2023-03-30T16:34:28.836Z,14.50
2023-03-30T16:36:56.345Z,13.93
2023-03-30T16:39:28.836Z,8.00
2023-03-30T16:41:56.513Z,10.47
2023-03-30T16:44:24.996Z,10.38
2023-03-30T16:46:52.700Z,11.98
2023-03-30T16:49:23.121Z,11.93
2023-03-30T16:51:52.598Z,14.17
2023-03-30T16:54:30.450Z,12.17
2023-03-30T16:57:00.603Z,8.25
2023-03-30T16:59:31.715Z,10.77
2023-03-30T17:02:00.159Z,21.70
2023-03-30T17:04:27.267Z,27.67
2023-03-30T17:06:55.188Z,15.57
2023-03-30T17:09:22.362Z,11.27
2023-03-30T17:11:50.041Z,14.67
2023-03-30T17:14:17.970Z,14.03
2023-03-30T17:16:45.499Z,11.83
2023-03-30T17:19:14.148Z,15.17
2023-03-30T17:21:43.858Z,14.43
2023-03-30T17:24:12.795Z,15.60
2023-03-30T17:26:41.110Z,15.67
2023-03-30T17:29:09.707Z,15.70
2023-03-30T17:31:38.423Z,13.13
2023-03-30T17:34:06.787Z,14.65
2023-03-30T17:36:34.011Z,12.18
2023-03-30T17:39:04.827Z,12.07
2023-03-30T17:41:33.771Z,17.83
2023-03-30T17:44:00.798Z,11.57
2023-03-30T17:46:28.437Z,12.90
2023-03-30T17:48:55.407Z,14.73
2023-03-30T17:51:22.614Z,18.37
2023-03-30T17:53:49.516Z,12.87
2023-03-30T17:56:17.223Z,17.43
2023-03-30T17:58:44.121Z,12.73
2023-03-30T18:01:13.298Z,16.37
2023-03-30T18:03:40.855Z,14.90
2023-03-30T18:06:13.725Z,12.27
2023-03-30T18:08:41.197Z,12.20
2023-03-30T18:11:10.705Z,10.70
2023-03-30T18:13:38.187Z,11.25
2023-03-30T18:16:06.868Z,10.73
2023-03-30T18:18:33.847Z,11.20
2023-03-30T18:21:04.280Z,17.60
2023-03-30T18:23:34.046Z,20.23
2023-03-30T18:26:09.425Z,19.37
2023-03-30T18:28:40.559Z,15.13
2023-03-30T18:31:08.896Z,13.13
2023-03-30T18:33:36.220Z,11.87
2023-03-30T18:36:07.583Z,16.40
2023-03-30T18:38:34.914Z,15.40
2023-03-30T18:41:02.091Z,14.23
2023-03-30T18:43:29.063Z,16.10
2023-03-30T18:46:01.047Z,11.40
2023-03-30T18:48:29.008Z,14.40
2023-03-30T18:50:57.082Z,12.87
2023-03-30T18:53:28.514Z,14.68
2023-03-30T18:55:58.698Z,13.33
2023-03-30T18:58:27.956Z,14.20
2023-03-30T19:00:56.186Z,14.40
2023-03-30T19:03:24.223Z,15.57
2023-03-30T19:05:51.662Z,12.32
2023-03-30T19:08:21.618Z,14.67
2023-03-30T19:10:51.024Z,11.68
2023-03-30T19:13:20.458Z,21.30
2023-03-30T19:15:49.682Z,12.03
2023-03-30T19:18:25.978Z,17.15
2023-03-30T19:20:55.591Z,14.63
2023-03-30T19:25:49.848Z,14.63
2023-03-30T19:28:17.306Z,12.65
2023-03-30T19:30:46.314Z,13.20
2023-03-30T19:33:16.631Z,10.43
2023-03-30T19:35:45.887Z,10.63
2023-03-30T19:38:14.869Z,11.15
2023-03-30T19:43:09.881Z,12.23
2023-03-30T19:45:37.475Z,9.93
2023-03-30T19:48:04.656Z,11.70
2023-03-30T19:50:31.852Z,12.43
2023-03-30T19:52:59.577Z,12.73
2023-03-30T19:55:27.112Z,18.03
2023-03-30T19:57:54.780Z,19.65
2023-03-30T20:00:22.791Z,13.32
2023-03-30T20:02:52.169Z,18.20
2023-03-30T20:05:21.008Z,12.63
2023-03-30T20:07:48.756Z,15.25
2023-03-30T20:10:20.336Z,9.50
2023-03-30T20:12:49.637Z,8.95
2023-03-30T20:15:18.051Z,6.00
2023-03-30T20:17:45.017Z,10.85
2023-03-30T20:20:17.060Z,11.00
2023-03-30T20:22:44.781Z,10.17
2023-03-30T20:25:14.110Z,6.30
2023-03-30T20:27:41.612Z,8.73
2023-03-30T20:30:10.123Z,8.75
2023-03-30T20:32:37.461Z,8.93
2023-03-30T20:35:06.212Z,14.00
2023-03-30T20:37:33.394Z,8.13
2023-03-30T20:40:04.247Z,9.32
2023-03-30T20:42:34.117Z,13.83
2023-03-30T20:45:01.747Z,10.00
2023-03-30T20:47:31.069Z,9.47
2023-03-30T20:49:59.388Z,9.52
2023-03-30T20:52:27.099Z,8.60
2023-03-30T20:54:54.404Z,9.83
2023-03-30T20:57:22.057Z,6.80
2023-03-30T20:59:50.189Z,10.97
2023-03-30T21:02:19.051Z,8.83
2023-03-30T21:07:13.620Z,21.40
2023-03-30T21:09:40.833Z,19.20
2023-03-30T21:12:09.774Z,18.37
2023-03-30T21:17:04.470Z,13.13
2023-03-30T21:19:31.816Z,12.20
2023-03-30T21:22:00.360Z,15.77
2023-03-30T21:24:28.034Z,16.23
2023-03-30T21:26:55.048Z,15.30
2023-03-30T21:29:22.759Z,10.97
2023-03-30T21:31:50.113Z,15.90
2023-03-30T21:34:18.907Z,13.83
2023-03-30T21:36:46.533Z,12.00
2023-03-30T21:39:14.144Z,19.20
2023-03-30T21:41:41.239Z,13.67
2023-03-30T21:44:08.533Z,11.43
2023-03-30T21:46:35.510Z,14.73
2023-03-30T21:49:02.792Z,13.63
2023-03-30T21:51:31.494Z,15.73
2023-03-30T21:53:59.477Z,15.32
2023-03-30T21:56:29.393Z,14.63
2023-03-30T21:58:57.736Z,14.07
2023-03-30T22:01:25.200Z,16.10
2023-03-30T22:03:53.716Z,16.67
2023-03-30T22:06:21.672Z,17.13
2023-03-30T22:08:49.147Z,18.57
2023-03-30T22:11:19.167Z,18.40
2023-03-30T22:13:48.516Z,16.90
2023-03-30T22:16:36.818Z,17.03
2023-03-30T22:19:04.560Z,19.15
2023-03-30T22:21:34.917Z,21.53
2023-03-30T22:24:04.159Z,17.40
2023-03-30T22:26:31.229Z,19.65
2023-03-30T22:28:58.437Z,17.00
2023-03-30T22:31:26.668Z,20.80
2023-03-30T22:33:54.612Z,16.88
2023-03-30T22:36:33.280Z,18.03
2023-03-30T22:39:01.903Z,13.98
2023-03-30T22:41:29.135Z,17.27
2023-03-30T22:43:58.041Z,15.57
2023-03-30T22:46:26.626Z,17.55
2023-03-30T22:48:55.770Z,18.13
2023-03-30T22:51:26.703Z,15.90
2023-03-30T22:54:00.733Z,14.63
2023-03-30T22:56:29.076Z,15.47
2023-03-30T22:58:57.134Z,16.17
2023-03-30T23:01:24.006Z,17.23
2023-03-30T23:03:53.100Z,12.47
2023-03-30T23:06:20.400Z,15.80
2023-03-30T23:08:48.931Z,15.80
2023-03-30T23:11:16.403Z,13.00
2023-03-30T23:13:43.757Z,15.67
2023-03-30T23:16:10.852Z,15.50
2023-03-30T23:18:38.689Z,13.07
2023-03-30T23:21:11.284Z,14.43
2023-03-30T23:23:38.698Z,15.90
2023-03-30T23:26:10.472Z,12.07
2023-03-30T23:28:42.135Z,19.13
2023-03-30T23:31:14.745Z,15.47
2023-03-30T23:33:42.776Z,14.80
2023-03-30T23:36:13.977Z,16.67
2023-03-30T23:38:41.795Z,11.73
2023-03-30T23:41:09.303Z,13.73
2023-03-30T23:43:36.543Z,15.93
2023-03-30T23:46:04.024Z,13.50
2023-03-30T23:48:32.012Z,12.90
2023-03-30T23:50:59.422Z,12.37
2023-03-30T23:53:27.018Z,12.13
2023-03-30T23:55:54.592Z,12.87
2023-03-30T23:58:22.521Z,13.90
